createdAt,value
2023-02-19T07:01:29.979Z,1.46
2023-02-19T07:04:37.244Z,1.65
2023-02-19T07:07:43.054Z,1.89
2023-02-19T07:10:47.214Z,2.28
2023-02-19T07:13:55.248Z,2.40
2023-02-19T07:17:18.716Z,2.71
2023-02-19T07:20:31.475Z,2.76
2023-02-19T07:23:37.663Z,2.52
2023-02-19T07:26:41.875Z,2.59
2023-02-19T07:29:44.747Z,2.53
2023-02-19T07:32:53.654Z,2.57
2023-02-19T07:36:37.328Z,2.53
2023-02-19T07:39:50.447Z,2.57
2023-02-19T07:43:09.049Z,2.42
2023-02-19T08:10:16.578Z,2.45
2023-02-19T08:13:26.982Z,2.48
2023-02-19T08:16:42.521Z,2.65
2023-02-19T08:19:48.260Z,2.72
2023-02-19T08:22:54.718Z,2.93
2023-02-19T08:26:03.400Z,2.92
2023-02-19T08:29:07.345Z,3.06
2023-02-19T08:32:11.884Z,3.19
2023-02-19T08:35:14.862Z,3.30
2023-02-19T08:38:19.185Z,3.18
2023-02-19T08:41:29.507Z,3.12
2023-02-19T08:44:33.601Z,3.18
2023-02-19T08:47:37.129Z,3.15
2023-02-19T08:50:40.149Z,3.35
2023-02-19T08:53:45.585Z,3.40
2023-02-19T08:56:50.106Z,3.29
2023-02-19T09:00:02.057Z,3.40
2023-02-19T09:03:06.313Z,3.24
2023-02-19T09:06:14.585Z,3.46
2023-02-19T09:09:19.249Z,3.48
2023-02-19T09:12:27.684Z,3.37
2023-02-19T09:15:33.614Z,3.37
2023-02-19T09:18:36.925Z,3.47
2023-02-19T09:21:48.371Z,3.47
2023-02-19T09:24:55.797Z,3.93
2023-02-19T09:28:01.426Z,3.91
2023-02-19T09:31:19.282Z,4.36
2023-02-19T09:34:23.245Z,4.24
2023-02-19T09:37:33.170Z,3.99
2023-02-19T09:40:37.441Z,3.81
2023-02-19T09:43:55.259Z,3.91
2023-02-19T09:47:03.022Z,3.98
2023-02-19T09:50:10.338Z,4.82
2023-02-19T09:53:24.972Z,5.35
2023-02-19T09:56:28.792Z,4.86
2023-02-19T09:59:44.502Z,4.62
2023-02-19T10:02:48.724Z,4.76
2023-02-19T10:06:04.101Z,4.86
2023-02-19T10:09:20.265Z,4.54
2023-02-19T10:12:31.698Z,4.47
2023-02-19T10:15:42.790Z,4.46
2023-02-19T10:18:47.305Z,4.42
2023-02-19T10:21:58.026Z,4.35
2023-02-19T10:25:05.565Z,4.11
2023-02-19T10:28:15.333Z,4.14
2023-02-19T10:31:26.737Z,4.44
2023-02-19T10:34:29.829Z,4.48
2023-02-19T10:37:36.839Z,4.95
2023-02-19T10:40:46.200Z,4.60
2023-02-19T10:43:55.772Z,4.93
2023-02-19T10:47:10.803Z,4.85
2023-02-19T10:50:28.146Z,4.74
2023-02-19T10:53:42.452Z,4.75
2023-02-19T10:56:47.424Z,4.95
2023-02-19T10:59:55.928Z,4.79
2023-02-19T11:03:21.038Z,4.87
2023-02-19T11:06:29.397Z,4.63
2023-02-19T11:09:38.691Z,4.73
2023-02-19T11:12:41.762Z,4.91
2023-02-19T11:15:54.744Z,4.87
2023-02-19T11:18:59.529Z,4.82
2023-02-19T11:22:03.682Z,5.73
2023-02-19T11:25:19.810Z,5.83
2023-02-19T11:28:32.059Z,5.26
2023-02-19T11:31:36.299Z,4.86
2023-02-19T11:34:43.298Z,4.84
2023-02-19T11:38:15.138Z,5.07
2023-02-19T11:41:29.928Z,5.67
2023-02-19T11:44:48.389Z,5.22
2023-02-19T11:48:17.101Z,4.98
2023-02-19T11:51:52.458Z,5.66
2023-02-19T11:55:38.208Z,5.85
2023-02-19T11:59:02.671Z,5.23
2023-02-19T12:02:52.965Z,5.33
2023-02-19T12:06:30.350Z,5.50
2023-02-19T12:10:30.824Z,5.26
2023-02-19T12:14:21.204Z,5.97
2023-02-19T12:18:12.393Z,6.35
2023-02-19T12:22:01.844Z,5.05
2023-02-19T12:26:16.175Z,4.82
2023-02-19T12:30:32.865Z,5.13
2023-02-19T12:35:46.761Z,5.05
2023-02-19T12:38:58.870Z,5.13
2023-02-19T12:42:19.911Z,6.01
2023-02-19T12:46:26.484Z,6.74
2023-02-19T12:50:06.024Z,7.22
2023-02-19T14:34:59.006Z,5.84
2023-02-19T14:38:02.206Z,5.60
2023-02-19T14:41:06.231Z,5.57
2023-02-19T14:44:17.739Z,5.51
2023-02-19T14:47:23.888Z,5.67
2023-02-19T14:50:31.415Z,5.55
2023-02-19T14:53:39.638Z,5.02
2023-02-19T14:56:46.701Z,4.92
2023-02-19T14:59:58.582Z,5.12
2023-02-19T15:03:02.609Z,5.19
2023-02-19T15:06:09.600Z,5.36
2023-02-19T15:09:14.517Z,5.26
2023-02-19T15:12:19.510Z,5.31
2023-02-19T15:15:23.880Z,5.32
2023-02-19T15:18:29.868Z,5.19
2023-02-19T15:21:36.996Z,5.21
2023-02-19T15:24:47.605Z,5.15
2023-02-19T15:27:51.231Z,5.10
2023-02-19T15:31:07.462Z,5.00
2023-02-19T15:34:17.643Z,4.94
2023-02-19T15:37:21.707Z,4.71
2023-02-19T15:40:30.183Z,4.57
2023-02-19T15:43:38.693Z,4.40
2023-02-19T15:46:42.418Z,4.37
2023-02-19T15:49:53.940Z,4.03
2023-02-19T15:53:04.022Z,3.84
2023-02-19T15:56:12.631Z,3.50
2023-02-19T15:59:22.756Z,3.47
2023-02-19T16:02:27.567Z,3.60
2023-02-19T16:05:30.671Z,3.36
2023-02-19T16:08:36.126Z,3.21
2023-02-19T16:11:41.076Z,3.31
2023-02-19T16:14:43.521Z,3.02
2023-02-19T16:17:46.489Z,2.84
2023-02-19T16:20:49.252Z,2.69
2023-02-19T16:23:59.245Z,2.51
2023-02-19T16:27:03.215Z,2.37
2023-02-19T16:30:10.340Z,2.29
2023-02-19T16:33:34.848Z,2.36
2023-02-19T16:36:41.527Z,2.46
2023-02-19T16:39:45.345Z,2.35
2023-02-19T16:43:25.052Z,2.29
2023-02-19T16:46:27.555Z,2.26
